createdAt,value
2018-03-24T00:00:47.883Z,32.30
2018-03-24T00:01:47.875Z,32.20
2018-03-24T00:02:47.867Z,33.20
2018-03-24T00:03:47.852Z,34.30
2018-03-24T00:05:08.853Z,30.80
2018-03-24T00:05:47.839Z,36.80
2018-03-24T00:06:47.828Z,33.10
2018-03-24T00:07:47.820Z,32.20
2018-03-24T00:08:47.807Z,34.80
2018-03-24T00:09:47.806Z,32.50
2018-03-24T00:11:08.802Z,32.10
2018-03-24T00:11:47.788Z,33.20
2018-03-24T00:12:47.779Z,30.40
2018-03-24T00:13:47.784Z,30.70
2018-03-24T00:14:47.771Z,31.10
2018-03-24T00:15:47.757Z,31.70
2018-03-24T00:17:08.750Z,33.00
2018-03-24T00:17:47.744Z,29.70
2018-03-24T00:18:47.727Z,31.70
2018-03-24T00:19:47.725Z,30.20
2018-03-24T00:20:47.726Z,30.50
2018-03-24T00:21:47.700Z,29.70
2018-03-24T00:23:08.704Z,29.50
2018-03-24T00:23:47.691Z,29.40
2018-03-24T00:24:47.685Z,30.60
2018-03-24T00:25:47.667Z,28.60
2018-03-24T00:26:47.668Z,30.60
2018-03-24T00:27:47.654Z,29.60
2018-03-24T00:29:08.653Z,29.60
2018-03-24T00:29:47.637Z,30.80
2018-03-24T00:30:47.635Z,29.90
2018-03-24T00:31:47.623Z,29.80
2018-03-24T00:32:47.618Z,32.60
2018-03-24T00:33:47.623Z,29.20
2018-03-24T00:35:08.605Z,28.70
2018-03-24T00:35:47.587Z,28.60
2018-03-24T00:36:47.586Z,31.00
2018-03-24T00:37:47.579Z,28.00
2018-03-24T00:38:47.562Z,30.40
2018-03-24T00:39:47.561Z,33.10
2018-03-24T00:41:08.573Z,30.30
2018-03-24T00:41:47.538Z,31.10
2018-03-24T00:42:47.543Z,29.20
2018-03-24T00:43:47.525Z,32.10
2018-03-24T00:44:47.515Z,33.80
2018-03-24T00:45:47.520Z,30.00
2018-03-24T00:47:08.507Z,33.50
2018-03-24T00:47:47.487Z,32.00
2018-03-24T00:48:47.484Z,30.10
2018-03-24T00:49:47.481Z,32.50
2018-03-24T00:50:47.476Z,29.70
2018-03-24T00:51:47.455Z,30.60
2018-03-24T00:53:08.463Z,29.90
2018-03-24T00:53:47.445Z,30.80
2018-03-24T00:54:47.432Z,31.70
2018-03-24T00:55:47.443Z,29.40
2018-03-24T00:56:47.430Z,31.80
2018-03-24T00:57:47.404Z,30.90
2018-03-24T00:59:08.415Z,30.50
2018-03-24T00:59:47.394Z,31.10
2018-03-24T01:00:47.388Z,29.60
2018-03-24T01:01:47.391Z,30.00
2018-03-24T01:02:47.375Z,28.80
2018-03-24T01:03:47.364Z,30.40
2018-03-24T01:05:08.348Z,28.90
2018-03-24T01:05:47.342Z,30.10
2018-03-24T01:06:47.335Z,30.50
2018-03-24T01:07:47.330Z,32.70
2018-03-24T01:08:47.318Z,30.20
2018-03-24T01:09:47.318Z,30.90
2018-03-24T01:11:08.307Z,32.70
2018-03-24T01:11:47.298Z,30.60
2018-03-24T01:12:47.288Z,34.00
2018-03-24T01:13:47.279Z,30.90
2018-03-24T01:14:47.275Z,27.70
2018-03-24T01:15:47.276Z,32.10
2018-03-24T01:17:08.264Z,28.10
2018-03-24T01:17:47.243Z,25.50
2018-03-24T01:18:47.246Z,28.40
2018-03-24T01:19:47.230Z,29.10
2018-03-24T01:20:47.219Z,27.20
2018-03-24T01:21:47.205Z,29.00
2018-03-24T01:23:08.210Z,29.00
2018-03-24T01:23:47.206Z,26.70
2018-03-24T01:24:47.188Z,28.30
2018-03-24T01:25:47.178Z,28.30
2018-03-24T01:26:47.168Z,27.60
2018-03-24T01:27:47.164Z,30.40
2018-03-24T01:29:08.164Z,28.70
2018-03-24T01:29:47.154Z,29.80
2018-03-24T01:30:47.145Z,28.10
2018-03-24T01:31:47.130Z,30.40
2018-03-24T01:32:47.121Z,29.10
2018-03-24T01:33:47.119Z,32.10
2018-03-24T01:35:08.115Z,31.70
2018-03-24T01:35:47.094Z,30.00
2018-03-24T01:36:47.088Z,27.40
2018-03-24T01:37:47.082Z,32.50
2018-03-24T01:38:47.067Z,29.40
2018-03-24T01:39:47.067Z,29.60
2018-03-24T01:41:08.054Z,31.60
2018-03-24T01:41:47.041Z,28.20
2018-03-24T01:42:47.032Z,27.80
2018-03-24T01:43:47.026Z,29.30
2018-03-24T01:44:47.023Z,28.20
2018-03-24T01:45:47.004Z,27.20
2018-03-24T01:47:08.009Z,29.30
2018-03-24T01:47:46.988Z,29.00
2018-03-24T01:48:46.991Z,29.30
2018-03-24T01:49:46.979Z,26.90
2018-03-24T01:50:46.975Z,27.70
2018-03-24T01:51:46.964Z,26.40
2018-03-24T01:53:07.958Z,28.80
2018-03-24T01:53:46.952Z,27.60
2018-03-24T01:54:46.932Z,25.70
2018-03-24T01:55:46.924Z,29.10
2018-03-24T01:56:46.919Z,25.80
2018-03-24T01:57:46.907Z,25.50
2018-03-24T01:59:07.916Z,27.00
2018-03-24T01:59:46.897Z,28.00
2018-03-24T02:00:46.885Z,25.90
2018-03-24T02:01:46.871Z,29.50
2018-03-24T02:02:46.868Z,29.20
2018-03-24T02:03:46.851Z,28.00
2018-03-24T02:05:07.858Z,28.30
2018-03-24T02:05:46.838Z,29.10
2018-03-24T02:06:46.831Z,27.60
2018-03-24T02:07:46.826Z,28.70
2018-03-24T02:08:46.816Z,26.60
2018-03-24T02:09:46.812Z,28.00
2018-03-24T02:11:07.797Z,29.20
2018-03-24T02:11:46.790Z,29.20
2018-03-24T02:12:46.781Z,29.30
2018-03-24T02:13:46.773Z,28.20
2018-03-24T02:14:46.765Z,28.40
2018-03-24T02:15:46.758Z,26.40
2018-03-24T02:17:07.749Z,28.20
2018-03-24T02:17:46.738Z,28.00
2018-03-24T02:18:46.735Z,27.50
2018-03-24T02:19:46.727Z,29.60
2018-03-24T02:20:46.715Z,29.10
2018-03-24T02:21:46.707Z,27.70
2018-03-24T02:23:07.697Z,24.60
2018-03-24T02:23:46.698Z,29.40
2018-03-24T02:24:46.680Z,27.30
2018-03-24T02:25:46.671Z,27.30
2018-03-24T02:26:47.201Z,30.30
2018-03-24T02:27:46.649Z,28.50
2018-03-24T02:29:07.647Z,29.70
2018-03-24T02:29:46.641Z,29.30
2018-03-24T02:30:46.623Z,31.20
2018-03-24T02:31:46.633Z,27.20
2018-03-24T02:32:46.615Z,30.50
2018-03-24T02:33:46.606Z,28.30
2018-03-24T02:35:07.600Z,26.70
2018-03-24T02:35:46.585Z,28.90
2018-03-24T02:36:46.581Z,36.50
2018-03-24T02:37:46.565Z,27.60
2018-03-24T02:38:46.560Z,26.90
2018-03-24T02:39:46.552Z,29.30
2018-03-24T02:41:07.548Z,27.00
2018-03-24T02:41:46.532Z,29.10
2018-03-24T02:42:46.519Z,25.00
2018-03-24T02:43:46.513Z,27.20
2018-03-24T02:44:46.503Z,26.70
2018-03-24T02:45:46.496Z,26.40
2018-03-24T02:47:07.493Z,24.10
2018-03-24T02:47:46.480Z,23.80
2018-03-24T02:48:46.477Z,23.30
2018-03-24T02:49:46.466Z,26.30
2018-03-24T02:50:46.453Z,25.30
2018-03-24T02:51:46.446Z,24.70
2018-03-24T02:53:07.446Z,26.40
2018-03-24T02:53:46.459Z,26.70
2018-03-24T02:54:46.465Z,25.30
2018-03-24T02:55:46.420Z,24.40
2018-03-24T02:56:46.407Z,26.90
2018-03-24T02:57:46.390Z,29.60
2018-03-24T02:59:08.208Z,25.50
2018-03-24T02:59:46.393Z,27.40
2018-03-24T03:00:46.363Z,27.60
2018-03-24T03:01:46.361Z,27.40
2018-03-24T03:02:46.348Z,25.40
2018-03-24T03:03:46.341Z,26.80
2018-03-24T03:05:07.335Z,29.70
2018-03-24T03:05:46.316Z,31.00
2018-03-24T03:06:46.324Z,28.60
2018-03-24T03:07:46.308Z,30.50
2018-03-24T03:08:46.292Z,29.20
2018-03-24T03:09:46.289Z,28.50
2018-03-24T03:11:07.284Z,32.20
2018-03-24T03:11:46.280Z,30.00
2018-03-24T03:12:46.256Z,28.40
2018-03-24T03:13:46.254Z,28.00
2018-03-24T03:14:46.240Z,27.60
2018-03-24T03:15:46.242Z,30.80
2018-03-24T03:17:07.234Z,30.10
2018-03-24T03:17:46.209Z,29.90
2018-03-24T03:18:46.256Z,29.40
2018-03-24T03:19:46.205Z,31.20
2018-03-24T03:20:46.214Z,30.20
2018-03-24T03:21:46.196Z,33.60
2018-03-24T03:23:07.196Z,31.10
2018-03-24T03:23:46.160Z,30.90
2018-03-24T03:24:46.223Z,30.40
2018-03-24T03:25:46.218Z,30.60
2018-03-24T03:26:46.138Z,30.00
2018-03-24T03:27:46.137Z,31.40
2018-03-24T03:29:07.125Z,33.10
2018-03-24T03:29:46.120Z,32.00
2018-03-24T03:30:46.115Z,32.40
2018-03-24T03:31:46.095Z,32.70
2018-03-24T03:32:46.092Z,30.90
2018-03-24T03:33:46.080Z,32.60
2018-03-24T03:35:07.071Z,28.60
2018-03-24T03:35:46.060Z,28.50
2018-03-24T03:36:46.054Z,29.30
2018-03-24T03:37:46.042Z,30.30
2018-03-24T03:38:46.063Z,30.30
2018-03-24T03:39:46.028Z,28.30
2018-03-24T03:41:07.019Z,26.00
2018-03-24T03:41:46.006Z,26.60
2018-03-24T03:42:46.010Z,24.40
2018-03-24T03:43:45.982Z,21.30
2018-03-24T03:44:45.994Z,24.50
2018-03-24T03:45:45.963Z,22.50
2018-03-24T03:47:07.018Z,22.20
2018-03-24T03:47:45.953Z,23.90
2018-03-24T03:48:45.938Z,22.50
2018-03-24T03:49:45.919Z,25.50
2018-03-24T03:50:45.924Z,23.50
2018-03-24T03:51:45.905Z,23.00
2018-03-24T03:53:06.923Z,25.00
2018-03-24T03:53:45.893Z,23.10
2018-03-24T03:54:45.883Z,25.30
2018-03-24T03:55:45.878Z,24.00
2018-03-24T03:56:45.872Z,24.40
2018-03-24T03:57:45.852Z,22.20
2018-03-24T03:59:06.852Z,24.20
2018-03-24T03:59:45.841Z,23.30
2018-03-24T04:00:45.936Z,24.70
2018-03-24T04:01:45.827Z,26.30
2018-03-24T04:02:45.813Z,24.70
2018-03-24T04:03:45.794Z,24.60
2018-03-24T04:05:06.858Z,24.20
2018-03-24T04:05:45.782Z,25.60
2018-03-24T04:06:45.787Z,25.50
2018-03-24T04:07:45.825Z,26.80
2018-03-24T04:08:45.750Z,26.90
2018-03-24T04:09:45.746Z,26.40
2018-03-24T04:11:06.742Z,28.10
2018-03-24T04:11:45.731Z,28.60
2018-03-24T04:12:45.787Z,27.80
2018-03-24T04:13:45.765Z,29.80
2018-03-24T04:14:45.706Z,30.10
2018-03-24T04:15:45.714Z,28.90
2018-03-24T04:17:06.684Z,27.70
2018-03-24T04:17:45.671Z,31.30
2018-03-24T04:18:45.657Z,32.60
2018-03-24T04:19:45.655Z,29.00
2018-03-24T04:20:45.649Z,30.50
2018-03-24T04:21:45.636Z,32.00
2018-03-24T04:23:06.629Z,31.60
2018-03-24T04:23:45.708Z,29.60
2018-03-24T04:24:45.624Z,32.20
2018-03-24T04:25:45.596Z,34.10
2018-03-24T04:26:45.589Z,33.40
2018-03-24T04:27:45.573Z,32.40
2018-03-24T04:29:06.571Z,31.70
2018-03-24T04:29:45.558Z,32.80
2018-03-24T04:30:45.622Z,35.10
2018-03-24T04:31:45.551Z,34.00
2018-03-24T04:32:45.531Z,34.20
2018-03-24T04:33:45.518Z,36.30
2018-03-24T04:35:06.539Z,33.50
2018-03-24T04:35:45.496Z,31.80
2018-03-24T04:36:45.490Z,35.00
2018-03-24T04:37:45.483Z,37.50
2018-03-24T04:38:45.498Z,34.70
2018-03-24T04:39:45.460Z,33.00
2018-03-24T04:41:06.506Z,32.90
2018-03-24T04:41:45.453Z,32.80
2018-03-24T04:42:45.443Z,35.90
2018-03-24T04:43:45.443Z,34.50
2018-03-24T04:44:45.423Z,36.00
2018-03-24T04:45:45.407Z,35.60
2018-03-24T04:47:06.407Z,32.70
2018-03-24T04:47:45.408Z,35.40
2018-03-24T04:48:46.295Z,35.00
2018-03-24T04:49:45.394Z,37.50
2018-03-24T04:50:45.361Z,33.30
2018-03-24T04:51:45.384Z,33.30
2018-03-24T04:53:06.354Z,35.70
2018-03-24T04:53:45.374Z,33.60
2018-03-24T04:54:45.325Z,34.80
2018-03-24T04:55:45.310Z,36.70
2018-03-24T04:56:45.309Z,34.50
2018-03-24T04:57:45.298Z,35.10
2018-03-24T04:59:06.289Z,33.90
2018-03-24T04:59:45.274Z,32.70
2018-03-24T05:00:45.264Z,36.30
2018-03-24T05:01:45.265Z,33.50
2018-03-24T05:02:45.243Z,34.20
2018-03-24T05:03:45.241Z,37.50
2018-03-24T05:05:06.278Z,36.20
2018-03-24T05:05:45.217Z,35.50
2018-03-24T05:06:45.205Z,34.60
2018-03-24T05:07:45.199Z,35.50
2018-03-24T05:08:45.183Z,35.00
2018-03-24T05:09:45.176Z,34.70
2018-03-24T05:11:06.192Z,35.10
2018-03-24T05:11:45.225Z,36.40
2018-03-24T05:12:45.150Z,33.40
2018-03-24T05:13:45.142Z,34.20
2018-03-24T05:14:45.165Z,31.70
2018-03-24T05:15:45.117Z,33.90
2018-03-24T05:17:06.121Z,35.30
2018-03-24T05:17:45.110Z,33.40
2018-03-24T05:18:45.103Z,33.70
2018-03-24T05:19:45.136Z,33.10
2018-03-24T05:20:45.079Z,31.90
2018-03-24T05:21:45.142Z,33.20
2018-03-24T05:23:06.075Z,32.90
2018-03-24T05:23:45.054Z,34.50
2018-03-24T05:24:45.038Z,34.90
2018-03-24T05:25:45.026Z,36.20
2018-03-24T05:26:45.026Z,40.70
2018-03-24T05:27:45.018Z,37.80
2018-03-24T05:29:06.002Z,34.50
2018-03-24T05:29:44.986Z,36.10
2018-03-24T05:30:44.972Z,39.60
2018-03-24T05:31:44.963Z,38.10
2018-03-24T05:32:44.981Z,36.20
2018-03-24T05:33:44.948Z,38.70
2018-03-24T05:35:05.953Z,39.60
2018-03-24T05:35:44.988Z,37.30
2018-03-24T05:36:44.931Z,39.30
2018-03-24T05:37:44.921Z,37.90
2018-03-24T05:38:44.896Z,36.70
2018-03-24T05:39:44.891Z,36.70
2018-03-24T05:41:05.953Z,36.60
2018-03-24T05:41:44.876Z,38.10
2018-03-24T05:42:44.904Z,37.50
2018-03-24T05:43:44.883Z,38.10
2018-03-24T05:44:44.855Z,37.70
2018-03-24T05:45:44.840Z,39.80
2018-03-24T05:47:05.827Z,36.50
2018-03-24T05:47:44.817Z,37.80
2018-03-24T05:48:44.844Z,38.70
2018-03-24T05:49:44.833Z,39.90
2018-03-24T05:50:44.776Z,40.50
2018-03-24T05:51:44.779Z,39.10
2018-03-24T05:53:05.768Z,37.70
2018-03-24T05:53:44.754Z,38.60
2018-03-24T05:54:44.773Z,37.10
2018-03-24T05:55:44.736Z,36.70
2018-03-24T05:56:44.736Z,37.80
2018-03-24T05:57:44.715Z,37.20
2018-03-24T05:59:05.713Z,35.30
2018-03-24T05:59:44.779Z,35.20
2018-03-24T06:00:44.686Z,36.90
2018-03-24T06:01:44.680Z,37.80
2018-03-24T06:02:44.717Z,38.80
2018-03-24T06:03:44.683Z,33.40
2018-03-24T06:05:05.657Z,37.40
2018-03-24T06:05:44.682Z,38.80
2018-03-24T06:06:44.633Z,33.60
2018-03-24T06:07:44.624Z,35.50
2018-03-24T06:08:44.614Z,33.90
2018-03-24T06:09:44.599Z,35.00
2018-03-24T06:11:05.632Z,35.20
2018-03-24T06:11:44.585Z,34.40
2018-03-24T06:12:44.582Z,35.60
2018-03-24T06:13:44.577Z,35.20
2018-03-24T06:14:44.558Z,37.90
2018-03-24T06:15:44.548Z,33.20
2018-03-24T06:17:05.538Z,35.90
2018-03-24T06:17:44.564Z,35.50
2018-03-24T06:18:44.517Z,36.60
2018-03-24T06:19:44.591Z,34.70
2018-03-24T06:20:44.490Z,33.20
2018-03-24T06:21:44.502Z,36.20
2018-03-24T06:23:05.515Z,32.60
2018-03-24T06:23:44.472Z,34.40
2018-03-24T06:24:44.453Z,35.40
2018-03-24T06:25:44.530Z,35.00
2018-03-24T06:26:44.499Z,33.90
2018-03-24T06:27:44.457Z,35.40
2018-03-24T06:29:05.430Z,35.00
2018-03-24T06:29:44.421Z,36.80
2018-03-24T06:30:44.405Z,33.80
2018-03-24T06:31:44.396Z,35.10
2018-03-24T06:32:44.408Z,35.20
2018-03-24T06:33:44.440Z,35.20
2018-03-24T06:35:05.367Z,35.30
2018-03-24T06:35:44.354Z,35.50
2018-03-24T06:36:44.343Z,35.00
2018-03-24T06:37:44.336Z,35.00
2018-03-24T06:38:44.337Z,37.30
2018-03-24T06:39:44.321Z,36.50
2018-03-24T06:41:05.318Z,38.70
2018-03-24T06:41:44.297Z,33.90
2018-03-24T06:42:44.292Z,38.50
2018-03-24T06:43:44.285Z,36.40
2018-03-24T06:44:44.356Z,38.60
2018-03-24T06:45:44.264Z,36.00
2018-03-24T06:47:05.250Z,38.50
2018-03-24T06:47:44.238Z,37.00
2018-03-24T06:48:44.231Z,38.80
2018-03-24T06:49:44.225Z,36.80
2018-03-24T06:50:44.217Z,35.00
2018-03-24T06:51:44.204Z,35.80
2018-03-24T06:53:05.203Z,37.50
2018-03-24T06:53:44.183Z,37.90
2018-03-24T06:54:44.174Z,40.50
2018-03-24T06:55:44.166Z,37.60
2018-03-24T06:56:44.160Z,37.50
2018-03-24T06:57:44.149Z,35.60
2018-03-24T06:59:05.145Z,41.00
2018-03-24T06:59:44.127Z,38.40
2018-03-24T07:00:44.120Z,40.60
2018-03-24T07:01:44.108Z,41.90
2018-03-24T07:02:44.103Z,37.70
2018-03-24T07:03:44.096Z,38.80
2018-03-24T07:05:05.098Z,41.50
2018-03-24T07:05:44.078Z,39.20
2018-03-24T07:06:44.073Z,38.80
2018-03-24T07:07:44.074Z,40.40
2018-03-24T07:08:44.048Z,39.80
2018-03-24T07:09:44.048Z,39.20
2018-03-24T07:11:05.037Z,40.80
2018-03-24T07:11:44.022Z,41.10
2018-03-24T07:12:44.009Z,39.70
2018-03-24T07:13:44.006Z,40.30
2018-03-24T07:14:43.991Z,41.40
2018-03-24T07:15:43.985Z,37.40
2018-03-24T07:17:04.978Z,41.20
2018-03-24T07:17:43.963Z,40.30
2018-03-24T07:18:43.949Z,39.90
2018-03-24T07:19:43.952Z,40.80
2018-03-24T07:20:43.939Z,42.10
2018-03-24T07:21:43.940Z,40.30
2018-03-24T07:23:04.920Z,43.50
2018-03-24T07:23:43.914Z,39.60
2018-03-24T07:24:43.904Z,40.40
2018-03-24T07:25:43.890Z,42.10
2018-03-24T07:26:43.882Z,42.20
2018-03-24T07:27:43.882Z,41.70
2018-03-24T07:29:04.866Z,40.10
2018-03-24T07:29:43.850Z,43.00
2018-03-24T07:30:43.849Z,43.40
2018-03-24T07:31:43.839Z,41.10
2018-03-24T07:32:43.823Z,43.50
2018-03-24T07:33:43.831Z,42.10
2018-03-24T07:35:04.805Z,42.70
2018-03-24T07:35:43.793Z,43.10
2018-03-24T07:36:43.781Z,41.60
2018-03-24T07:37:43.780Z,41.60
2018-03-24T07:38:44.432Z,39.90
2018-03-24T07:39:43.763Z,43.20
2018-03-24T07:41:04.749Z,41.10
2018-03-24T07:41:43.745Z,42.10
2018-03-24T07:42:43.729Z,40.40
2018-03-24T07:43:43.722Z,41.80
2018-03-24T07:44:43.707Z,40.80
2018-03-24T07:45:43.699Z,41.40
2018-03-24T07:47:04.701Z,45.30
2018-03-24T07:47:43.682Z,41.30
2018-03-24T07:48:43.718Z,40.40
2018-03-24T07:49:43.667Z,42.30
2018-03-24T07:50:43.654Z,41.70
2018-03-24T07:51:43.653Z,42.00
2018-03-24T07:53:04.646Z,43.80
2018-03-24T07:53:43.686Z,45.90
2018-03-24T07:54:43.625Z,41.90
2018-03-24T07:55:43.611Z,43.90
2018-03-24T07:56:43.610Z,44.40
2018-03-24T07:57:43.585Z,44.60
2018-03-24T07:59:04.590Z,47.90
2018-03-24T07:59:43.589Z,45.50
2018-03-24T08:00:43.557Z,43.50
2018-03-24T08:01:43.547Z,43.30
2018-03-24T08:02:43.545Z,45.10
2018-03-24T08:03:43.539Z,42.30
2018-03-24T08:05:04.524Z,46.80
2018-03-24T08:05:43.524Z,47.20
2018-03-24T08:06:43.507Z,47.10
2018-03-24T08:07:44.407Z,44.90
2018-03-24T08:08:43.492Z,42.80
2018-03-24T08:09:43.513Z,44.10
2018-03-24T08:11:04.531Z,45.00
2018-03-24T08:11:43.472Z,47.10
2018-03-24T08:12:43.444Z,49.10
2018-03-24T08:13:43.446Z,48.50
2018-03-24T08:14:43.433Z,45.50
2018-03-24T08:15:43.429Z,44.30
2018-03-24T08:17:04.433Z,44.70
2018-03-24T08:17:43.410Z,43.60
2018-03-24T08:18:43.396Z,45.30
2018-03-24T08:19:43.399Z,46.90
2018-03-24T08:20:43.406Z,46.00
2018-03-24T08:21:44.318Z,45.90
2018-03-24T08:23:04.394Z,42.90
2018-03-24T08:23:43.356Z,45.70
2018-03-24T08:24:43.341Z,45.30
2018-03-24T08:25:43.346Z,44.20
2018-03-24T08:26:43.335Z,43.20
2018-03-24T08:27:43.343Z,45.00
2018-03-24T08:29:04.312Z,47.90
2018-03-24T08:29:43.308Z,47.50
2018-03-24T08:30:43.294Z,45.40
2018-03-24T08:31:43.300Z,47.90
2018-03-24T08:32:43.275Z,46.00
2018-03-24T08:33:43.285Z,46.00
2018-03-24T08:35:04.324Z,44.10
2018-03-24T08:35:43.253Z,50.80
2018-03-24T08:36:43.244Z,44.40
2018-03-24T08:37:43.239Z,45.90
2018-03-24T08:38:43.256Z,42.00
2018-03-24T08:39:43.217Z,44.40
2018-03-24T08:41:04.228Z,44.00
2018-03-24T08:41:43.216Z,42.10
2018-03-24T08:42:43.193Z,45.70
2018-03-24T08:43:43.195Z,48.60
2018-03-24T08:44:43.187Z,44.30
2018-03-24T08:45:43.165Z,47.90
2018-03-24T08:47:04.162Z,46.90
2018-03-24T08:47:43.164Z,45.70
2018-03-24T08:48:43.139Z,47.00
2018-03-24T08:49:43.144Z,47.60
2018-03-24T08:50:43.114Z,42.40
2018-03-24T08:51:43.176Z,45.20
2018-03-24T08:53:04.120Z,44.10
2018-03-24T08:53:43.104Z,42.90
2018-03-24T08:54:43.092Z,41.20
2018-03-24T08:55:43.104Z,42.30
2018-03-24T08:56:43.104Z,41.70
2018-03-24T08:57:43.072Z,41.60
2018-03-24T08:59:04.113Z,41.30
2018-03-24T08:59:43.057Z,43.80
2018-03-24T09:00:43.037Z,41.10
2018-03-24T09:01:43.061Z,41.90
2018-03-24T09:02:43.048Z,43.00
2018-03-24T09:03:43.025Z,42.90
2018-03-24T09:05:04.022Z,38.50
2018-03-24T09:05:43.011Z,42.20
2018-03-24T09:06:43.028Z,41.60
2018-03-24T09:07:43.011Z,40.70
2018-03-24T09:08:43.026Z,39.80
2018-03-24T09:09:42.983Z,37.20
2018-03-24T09:11:03.983Z,37.90
2018-03-24T09:11:42.959Z,39.00
2018-03-24T09:12:42.953Z,39.80
2018-03-24T09:13:42.945Z,38.30
2018-03-24T09:14:42.941Z,37.60
2018-03-24T09:15:42.927Z,38.90
2018-03-24T09:17:03.936Z,36.30
2018-03-24T09:17:42.928Z,39.10
2018-03-24T09:18:42.903Z,41.10
2018-03-24T09:19:42.901Z,40.10
2018-03-24T09:20:42.891Z,37.20
2018-03-24T09:21:42.877Z,37.70
2018-03-24T09:23:03.879Z,39.80
2018-03-24T09:23:42.866Z,37.80
2018-03-24T09:24:42.856Z,39.50
2018-03-24T09:25:42.864Z,36.90
2018-03-24T09:26:42.857Z,36.80
2018-03-24T09:27:42.834Z,37.80
2018-03-24T09:29:03.827Z,37.90
2018-03-24T09:29:42.817Z,36.50
2018-03-24T09:30:42.806Z,36.60
2018-03-24T09:31:42.816Z,37.10
2018-03-24T09:32:42.793Z,38.90
2018-03-24T09:33:42.793Z,36.30
2018-03-24T09:35:04.418Z,37.40
2018-03-24T09:35:42.774Z,36.60
2018-03-24T09:36:42.767Z,37.30
2018-03-24T09:37:42.761Z,37.60
2018-03-24T09:38:42.753Z,35.10
2018-03-24T09:39:42.745Z,32.20
2018-03-24T09:41:03.758Z,34.50
2018-03-24T09:41:42.735Z,32.20
2018-03-24T09:42:42.725Z,34.70
2018-03-24T09:43:42.722Z,34.30
2018-03-24T09:44:42.711Z,33.80
2018-03-24T09:45:42.742Z,32.60
2018-03-24T09:47:03.705Z,31.40
2018-03-24T09:47:42.691Z,34.20
2018-03-24T09:48:42.678Z,36.30
2018-03-24T09:49:42.667Z,33.60
2018-03-24T09:50:42.679Z,31.90
2018-03-24T09:51:42.658Z,33.10
2018-03-24T09:53:03.698Z,32.70
2018-03-24T09:53:42.645Z,33.60
2018-03-24T09:54:42.641Z,31.00
2018-03-24T09:55:42.629Z,30.80
2018-03-24T09:56:42.623Z,30.70
2018-03-24T09:57:42.619Z,30.90
2018-03-24T09:59:03.624Z,31.40
2018-03-24T09:59:42.626Z,31.70
2018-03-24T10:00:42.618Z,30.40
2018-03-24T10:01:42.590Z,32.80
2018-03-24T10:02:42.582Z,29.40
2018-03-24T10:03:42.570Z,29.90
2018-03-24T10:05:03.613Z,29.40
2018-03-24T10:05:42.554Z,30.60
2018-03-24T10:06:42.555Z,30.60
2018-03-24T10:07:42.546Z,30.00
2018-03-24T10:08:42.568Z,29.00
2018-03-24T10:09:42.532Z,27.70
2018-03-24T10:11:03.538Z,26.80
2018-03-24T10:11:42.515Z,28.20
2018-03-24T10:12:42.509Z,27.90
2018-03-24T10:13:42.501Z,28.60
2018-03-24T10:14:42.529Z,29.70
2018-03-24T10:15:42.505Z,29.80
2018-03-24T10:17:03.492Z,27.30
2018-03-24T10:17:42.493Z,28.10
2018-03-24T10:18:42.488Z,28.20
2018-03-24T10:19:42.468Z,28.60
2018-03-24T10:20:42.456Z,24.20
2018-03-24T10:21:42.452Z,26.70
2018-03-24T10:23:03.465Z,26.50
2018-03-24T10:23:42.438Z,25.60
2018-03-24T10:24:42.433Z,27.60
2018-03-24T10:25:42.430Z,28.50
2018-03-24T10:26:42.419Z,27.50
2018-03-24T10:27:42.411Z,24.40
2018-03-24T10:29:03.446Z,24.40
2018-03-24T10:29:42.398Z,23.80
2018-03-24T10:30:42.386Z,24.30
2018-03-24T10:31:42.391Z,21.50
2018-03-24T10:32:42.382Z,21.20
2018-03-24T10:33:42.375Z,23.50
2018-03-24T10:35:03.373Z,22.60
2018-03-24T10:35:42.363Z,24.00
2018-03-24T10:36:42.351Z,18.90
2018-03-24T10:37:42.358Z,15.40
2018-03-24T10:38:42.347Z,14.00
2018-03-24T10:39:42.337Z,13.60
2018-03-24T10:41:03.336Z,14.00
2018-03-24T10:41:42.326Z,14.50
2018-03-24T10:42:42.324Z,17.30
2018-03-24T10:43:42.312Z,19.00
2018-03-24T10:44:42.315Z,15.70
2018-03-24T10:45:42.306Z,18.10
2018-03-24T10:47:03.303Z,18.60
2018-03-24T10:47:42.300Z,17.00
2018-03-24T10:48:42.273Z,17.00
2018-03-24T10:49:42.300Z,17.00
2018-03-24T10:50:42.272Z,17.30
2018-03-24T10:51:42.269Z,17.30
2018-03-24T10:53:03.265Z,17.70
2018-03-24T10:53:42.252Z,17.70
2018-03-24T10:54:42.247Z,17.80
2018-03-24T10:55:42.244Z,16.40
2018-03-24T10:56:42.232Z,17.10
2018-03-24T10:57:42.225Z,17.60
2018-03-24T10:59:03.224Z,19.10
2018-03-24T10:59:42.227Z,15.80
2018-03-24T11:00:42.209Z,16.10
2018-03-24T11:01:42.200Z,18.00
2018-03-24T11:02:42.196Z,16.30
2018-03-24T11:03:42.191Z,17.20
2018-03-24T11:05:03.191Z,16.40
2018-03-24T11:05:42.198Z,14.40
2018-03-24T11:06:42.176Z,15.60
2018-03-24T11:07:42.174Z,14.90
2018-03-24T11:08:42.161Z,16.20
2018-03-24T11:09:42.155Z,17.20
2018-03-24T11:11:03.174Z,16.50
2018-03-24T11:11:42.148Z,17.20
2018-03-24T11:12:42.145Z,16.50
2018-03-24T11:13:42.146Z,18.00
2018-03-24T11:14:42.135Z,17.90
2018-03-24T11:15:42.129Z,17.00
2018-03-24T11:17:03.126Z,16.10
2018-03-24T11:17:42.108Z,14.60
2018-03-24T11:18:42.112Z,16.30
2018-03-24T11:19:42.107Z,14.90
2018-03-24T11:20:42.098Z,15.50
2018-03-24T11:21:42.098Z,15.20
2018-03-24T11:23:03.097Z,15.90
2018-03-24T11:23:42.099Z,15.80
2018-03-24T11:24:42.078Z,16.20
2018-03-24T11:25:42.074Z,17.20
2018-03-24T11:26:42.077Z,17.20
2018-03-24T11:27:42.066Z,17.30
2018-03-24T11:29:03.083Z,15.80
2018-03-24T11:29:42.053Z,15.70
2018-03-24T11:30:42.055Z,15.50
2018-03-24T11:31:42.040Z,15.80
2018-03-24T11:32:42.043Z,15.30
2018-03-24T11:33:42.035Z,16.20
2018-03-24T11:35:03.088Z,17.00
2018-03-24T11:35:42.030Z,16.70
2018-03-24T11:36:42.045Z,15.00
2018-03-24T11:37:42.039Z,15.30
2018-03-24T11:38:42.024Z,14.50
2018-03-24T11:39:42.026Z,16.00
2018-03-24T11:41:03.019Z,14.50
2018-03-24T11:41:42.003Z,15.40
2018-03-24T11:42:41.996Z,13.00
2018-03-24T11:43:42.000Z,11.80
2018-03-24T11:44:41.999Z,15.00
2018-03-24T11:45:42.003Z,13.30
2018-03-24T11:47:03.002Z,12.20
2018-03-24T11:47:41.986Z,14.40
2018-03-24T11:48:41.992Z,15.40
2018-03-24T11:49:41.999Z,15.00
2018-03-24T11:50:41.987Z,14.50
2018-03-24T11:51:41.982Z,14.50
2018-03-24T11:53:02.998Z,13.00
2018-03-24T11:53:41.968Z,13.20
2018-03-24T11:54:41.972Z,13.20
2018-03-24T11:55:41.972Z,12.50
2018-03-24T11:56:41.970Z,13.00
2018-03-24T11:57:41.972Z,14.00
2018-03-24T11:59:02.975Z,14.10
2018-03-24T11:59:41.976Z,12.60
2018-03-24T12:00:41.963Z,13.60
2018-03-24T12:01:41.961Z,13.60
2018-03-24T12:02:41.954Z,13.10
2018-03-24T12:03:41.984Z,13.00
2018-03-24T12:05:02.961Z,13.90
2018-03-24T12:05:41.952Z,12.20
2018-03-24T12:06:41.948Z,12.90
2018-03-24T12:07:41.944Z,12.80
2018-03-24T12:08:41.944Z,11.90
2018-03-24T12:09:41.934Z,13.60
2018-03-24T12:11:02.944Z,12.90
2018-03-24T12:11:41.933Z,11.00
2018-03-24T12:12:41.936Z,10.70
2018-03-24T12:13:41.923Z,11.80
2018-03-24T12:14:41.927Z,12.10
2018-03-24T12:15:41.923Z,10.80
2018-03-24T12:17:02.946Z,11.70
2018-03-24T12:17:41.962Z,10.40
2018-03-24T12:18:41.915Z,12.40
2018-03-24T12:19:41.916Z,9.70
2018-03-24T12:20:41.907Z,11.50
2018-03-24T12:21:41.908Z,10.50
2018-03-24T12:23:02.929Z,11.20
2018-03-24T12:23:41.899Z,10.40
2018-03-24T12:24:41.904Z,10.60
2018-03-24T12:25:41.893Z,11.30
2018-03-24T12:26:41.896Z,10.10
2018-03-24T12:27:41.895Z,10.60
2018-03-24T12:29:02.886Z,9.30
2018-03-24T12:29:41.879Z,9.20
2018-03-24T12:30:41.881Z,10.30
2018-03-24T12:31:41.878Z,10.20
2018-03-24T12:32:41.871Z,10.10
2018-03-24T12:33:41.867Z,9.80
2018-03-24T12:35:02.874Z,10.20
2018-03-24T12:35:41.870Z,11.00
2018-03-24T12:36:41.872Z,10.70
2018-03-24T12:37:41.857Z,12.50
2018-03-24T12:38:41.851Z,10.90
2018-03-24T12:39:41.856Z,11.40
2018-03-24T12:41:02.860Z,10.80
2018-03-24T12:41:41.855Z,11.80
2018-03-24T12:42:41.835Z,10.60
2018-03-24T12:43:41.841Z,11.20
2018-03-24T12:44:41.835Z,12.60
2018-03-24T12:45:41.833Z,12.40
2018-03-24T12:47:02.863Z,11.70
2018-03-24T12:47:41.828Z,11.00
2018-03-24T12:48:41.830Z,11.00
2018-03-24T12:49:41.823Z,10.30
2018-03-24T12:50:41.838Z,10.80
2018-03-24T12:51:41.807Z,10.90
2018-03-24T12:53:02.804Z,11.30